createdAt,value
2022-09-12T00:01:27.714Z,75958.25
2022-09-12T00:03:58.184Z,75958.25
2022-09-12T00:06:28.086Z,75954.38
2022-09-12T00:08:57.226Z,75950.53
2022-09-12T00:11:24.969Z,75942.84
2022-09-12T00:13:55.272Z,75950.53
2022-09-12T00:16:24.885Z,75952.47
2022-09-12T00:18:53.732Z,75956.31
2022-09-12T00:21:21.940Z,75954.38
2022-09-12T00:23:49.259Z,75958.25
2022-09-12T00:26:17.536Z,75965.94
2022-09-12T00:28:44.989Z,75965.94
2022-09-12T00:31:15.118Z,75967.88
2022-09-12T00:33:42.547Z,75960.16
2022-09-12T00:36:12.366Z,75958.25
2022-09-12T00:38:42.063Z,75958.25
2022-09-12T00:41:16.357Z,75946.69
2022-09-12T00:43:46.118Z,75946.69
2022-09-12T00:46:36.279Z,75931.28
2022-09-12T00:49:12.416Z,75937.06
2022-09-12T00:51:40.962Z,75927.41
2022-09-12T00:54:12.920Z,75917.78
2022-09-12T00:56:43.418Z,75913.94
2022-09-12T00:59:19.572Z,75912.00
2022-09-12T01:01:50.161Z,75912.00
2022-09-12T01:04:20.006Z,75904.28
2022-09-12T01:06:48.695Z,75904.28
2022-09-12T01:09:19.470Z,75904.28
2022-09-12T01:11:48.643Z,75908.16
2022-09-12T01:14:18.367Z,75910.06
2022-09-12T01:16:47.446Z,75913.94
2022-09-12T01:19:29.097Z,75902.38
2022-09-12T01:22:10.722Z,75904.28
2022-09-12T01:25:06.855Z,75898.53
2022-09-12T01:28:05.936Z,75896.59
2022-09-12T01:30:54.729Z,75890.81
2022-09-12T01:34:02.717Z,75883.09
2022-09-12T01:36:35.827Z,75886.97
2022-09-12T01:39:05.632Z,75885.03
2022-09-12T01:41:44.339Z,75877.31
2022-09-12T01:44:36.660Z,75869.63
2022-09-12T01:47:21.775Z,75859.97
2022-09-12T01:50:09.256Z,75850.34
2022-09-12T01:52:50.550Z,75858.06
2022-09-12T01:55:23.580Z,75850.34
2022-09-12T01:57:57.537Z,75854.22
2022-09-12T02:00:24.822Z,75846.50
2022-09-12T02:03:10.531Z,75842.66
2022-09-12T02:05:43.032Z,75836.88
2022-09-12T02:08:14.747Z,75838.78
2022-09-12T02:10:51.261Z,75838.78
2022-09-12T02:13:37.242Z,75834.94
2022-09-12T02:16:27.808Z,75831.09
2022-09-12T02:18:59.798Z,75833.00
2022-09-12T02:21:28.863Z,75831.09
2022-09-12T02:23:58.875Z,75836.88
2022-09-12T02:26:32.078Z,75829.16
2022-09-12T02:28:58.994Z,75827.22
2022-09-12T02:31:45.097Z,75817.59
2022-09-12T02:34:49.553Z,75817.59
2022-09-12T02:37:31.912Z,75811.81
2022-09-12T02:40:00.090Z,75804.13
2022-09-12T02:42:27.207Z,75806.03
2022-09-12T02:44:56.897Z,75804.13
2022-09-12T02:47:30.011Z,75809.91
2022-09-12T02:49:57.549Z,75800.25
2022-09-12T02:52:25.318Z,75804.13
2022-09-12T02:54:52.355Z,75800.25
2022-09-12T02:57:23.034Z,75796.41
2022-09-12T02:59:53.508Z,75788.69
2022-09-12T03:02:28.224Z,75786.78
2022-09-12T03:05:13.015Z,75786.78
2022-09-12T03:08:07.621Z,75796.41
2022-09-12T03:10:55.694Z,75792.56
2022-09-12T03:13:34.158Z,75792.56
2022-09-12T03:16:08.749Z,75796.41
2022-09-12T03:19:14.754Z,75798.34
2022-09-12T03:22:13.560Z,75802.19
2022-09-12T03:24:53.841Z,75802.19
2022-09-12T03:27:37.105Z,75806.03
2022-09-12T03:30:08.379Z,75811.81
2022-09-12T03:32:47.376Z,75815.69
2022-09-12T03:35:18.795Z,75827.22
2022-09-12T03:37:49.153Z,75834.94
2022-09-12T03:40:15.906Z,75840.72
2022-09-12T03:42:42.626Z,75846.50
2022-09-12T03:45:10.105Z,75852.28
2022-09-12T03:47:37.355Z,75858.06
2022-09-12T03:50:05.231Z,75865.75
2022-09-12T03:52:32.458Z,75865.75
2022-09-12T03:54:59.117Z,75869.63
2022-09-12T03:57:25.783Z,75865.75
2022-09-12T03:59:52.472Z,75869.63
2022-09-12T04:02:19.290Z,75877.31
2022-09-12T04:04:48.298Z,75883.09
2022-09-12T04:07:16.260Z,75881.19
2022-09-12T04:09:43.011Z,75886.97
2022-09-12T04:12:09.750Z,75896.59
2022-09-12T04:14:36.458Z,75904.28
2022-09-12T04:17:03.268Z,75912.00
2022-09-12T04:19:30.094Z,75908.16
2022-09-12T04:21:56.858Z,75913.94
2022-09-12T04:24:23.962Z,75910.06
2022-09-12T04:26:50.794Z,75910.06
2022-09-12T04:29:17.572Z,75906.22
2022-09-12T04:31:44.544Z,75912.00
2022-09-12T04:34:11.470Z,75908.16
2022-09-12T04:36:38.372Z,75908.16
2022-09-12T04:39:06.038Z,75908.16
2022-09-12T04:41:35.678Z,75894.66
2022-09-12T04:44:06.567Z,75885.03
2022-09-12T04:46:36.440Z,75892.75
2022-09-12T04:49:04.268Z,75890.81
2022-09-12T04:51:33.826Z,75881.19
2022-09-12T04:54:03.824Z,75854.22
2022-09-12T04:56:31.291Z,75750.16
2022-09-12T04:58:59.320Z,75634.56
2022-09-12T05:01:28.145Z,75522.84
2022-09-12T05:03:55.899Z,75540.19
2022-09-12T05:06:25.500Z,75565.22
2022-09-12T05:08:53.232Z,75642.28
2022-09-12T05:11:25.431Z,75650.00
2022-09-12T05:13:53.857Z,75651.91
2022-09-12T05:16:21.949Z,75723.19
2022-09-12T05:18:50.277Z,75738.63
2022-09-12T05:21:19.675Z,75769.44
2022-09-12T05:23:50.194Z,75792.56
2022-09-12T05:26:17.421Z,75773.28
2022-09-12T05:28:44.199Z,75755.94
2022-09-12T05:31:13.307Z,75759.81
2022-09-12T05:33:42.224Z,75761.72
2022-09-12T05:36:13.231Z,75757.88
2022-09-12T05:38:40.379Z,75748.25
2022-09-12T05:41:18.991Z,75748.25
2022-09-12T05:43:51.868Z,75740.53
2022-09-12T05:46:20.668Z,75744.38
2022-09-12T05:48:52.508Z,75744.38
2022-09-12T05:51:23.703Z,75738.63
2022-09-12T05:53:56.881Z,75759.81
2022-09-12T05:56:27.407Z,75765.59
2022-09-12T05:59:12.610Z,75750.16
2022-09-12T06:01:40.312Z,75757.88
2022-09-12T06:04:08.197Z,75750.16
2022-09-12T06:06:45.140Z,75742.47
2022-09-12T06:09:14.145Z,75723.19
2022-09-12T06:11:41.296Z,75711.63
2022-09-12T06:14:10.193Z,75692.38
2022-09-12T06:16:37.901Z,75665.41
2022-09-12T06:19:07.540Z,75644.22
2022-09-12T06:21:35.435Z,75623.03
2022-09-12T06:24:02.613Z,75617.25
2022-09-12T06:26:29.718Z,75605.69
2022-09-12T06:28:59.286Z,75594.13
2022-09-12T06:31:31.813Z,75578.72
2022-09-12T06:34:01.263Z,75553.66
2022-09-12T06:36:30.591Z,75565.22
2022-09-12T06:39:02.915Z,75549.81
2022-09-12T06:41:31.295Z,75538.25
2022-09-12T06:43:59.683Z,75549.81
2022-09-12T06:46:27.398Z,75542.09
2022-09-12T06:48:56.284Z,75526.69
2022-09-12T06:51:23.543Z,75511.28
2022-09-12T06:53:50.406Z,75503.59
2022-09-12T06:56:19.779Z,75495.88
2022-09-12T06:58:47.964Z,75522.84
2022-09-12T07:01:20.468Z,75480.47
2022-09-12T07:03:49.199Z,75492.03
2022-09-12T07:06:18.260Z,75503.59
2022-09-12T07:08:45.575Z,75522.84
2022-09-12T07:11:22.258Z,75515.13
2022-09-12T07:13:51.419Z,75547.88
2022-09-12T07:16:19.846Z,75551.75
2022-09-12T07:18:58.025Z,75549.81
2022-09-12T07:21:25.519Z,75547.88
2022-09-12T07:23:52.898Z,75551.75
2022-09-12T07:26:20.065Z,75544.03
2022-09-12T07:28:52.211Z,75544.03
2022-09-12T07:31:20.600Z,75580.63
2022-09-12T07:33:50.096Z,75603.75
2022-09-12T07:36:23.272Z,75588.34
2022-09-12T07:38:57.432Z,75607.59
2022-09-12T07:41:29.436Z,75584.50
2022-09-12T07:43:58.274Z,75584.50
2022-09-12T07:46:26.652Z,75561.38
2022-09-12T07:48:55.300Z,75545.97
2022-09-12T07:51:23.357Z,75545.97
2022-09-12T07:53:51.832Z,75513.22
2022-09-12T07:56:20.007Z,75553.66
2022-09-12T07:58:47.362Z,75545.97
2022-09-12T08:01:23.368Z,75542.09
2022-09-12T08:03:54.877Z,75534.41
2022-09-12T08:06:26.407Z,75522.84
2022-09-12T08:08:55.107Z,75515.13
2022-09-12T08:11:23.143Z,75503.59
2022-09-12T08:13:55.283Z,75538.25
2022-09-12T08:16:25.910Z,75509.34
2022-09-12T08:18:52.834Z,75488.16
2022-09-12T08:21:25.485Z,75455.41
2022-09-12T08:24:02.987Z,75453.50
2022-09-12T08:26:31.055Z,75503.59
2022-09-12T08:28:57.903Z,75438.09
2022-09-12T08:31:26.797Z,75374.50
2022-09-12T08:33:56.727Z,75368.72
2022-09-12T08:36:26.527Z,75347.53
2022-09-12T08:39:00.209Z,75312.88
2022-09-12T08:41:30.448Z,75309.00
2022-09-12T08:44:00.093Z,75276.28
2022-09-12T08:46:45.660Z,75266.63
2022-09-12T08:49:24.375Z,75235.81
2022-09-12T08:51:52.043Z,75210.78
2022-09-12T08:54:25.174Z,75210.78
2022-09-12T08:56:58.636Z,75222.34
2022-09-12T08:59:25.733Z,75206.91
2022-09-12T09:01:59.303Z,75203.06
2022-09-12T09:04:46.177Z,75233.88
2022-09-12T09:07:50.462Z,75187.66
2022-09-12T09:10:29.185Z,75126.03
2022-09-12T09:13:43.098Z,75141.44
2022-09-12T09:16:35.043Z,75114.47
2022-09-12T09:19:09.407Z,75095.19
2022-09-12T09:21:50.454Z,75120.25
2022-09-12T09:24:22.075Z,75141.44
2022-09-12T09:26:54.725Z,75068.25
2022-09-12T09:29:27.832Z,75081.72
2022-09-12T09:31:59.427Z,75087.50
2022-09-12T09:34:31.747Z,75141.44
2022-09-12T09:37:20.909Z,75112.53
2022-09-12T09:40:00.997Z,75006.59
2022-09-12T09:42:38.600Z,75018.16
2022-09-12T09:45:16.222Z,75095.19
2022-09-12T09:47:49.029Z,75002.75
2022-09-12T09:50:19.411Z,74973.84
2022-09-12T09:52:47.472Z,75029.72
2022-09-12T09:55:22.041Z,75075.94
2022-09-12T09:57:49.989Z,75085.56
2022-09-12T10:00:28.803Z,75106.75
2022-09-12T10:03:04.861Z,75141.44
2022-09-12T10:05:35.641Z,75126.03
2022-09-12T10:08:04.513Z,75091.34
2022-09-12T10:10:31.400Z,75097.13
2022-09-12T10:13:10.116Z,75091.34
2022-09-12T10:15:38.262Z,75087.50
2022-09-12T10:18:05.420Z,75091.34
2022-09-12T10:20:44.496Z,75081.72
2022-09-12T10:23:29.562Z,75025.84
2022-09-12T10:26:02.436Z,75023.94
2022-09-12T10:28:43.900Z,75008.53
2022-09-12T10:31:15.654Z,74985.41
2022-09-12T10:33:47.739Z,75041.28
2022-09-12T10:36:15.513Z,75035.50
2022-09-12T10:38:51.112Z,75006.59
2022-09-12T10:41:18.750Z,75060.53
2022-09-12T10:43:45.837Z,74995.03
2022-09-12T10:46:16.010Z,74891.03
2022-09-12T10:48:44.208Z,74858.28
2022-09-12T10:51:26.295Z,74794.72
2022-09-12T10:54:05.033Z,74767.75
2022-09-12T10:56:37.039Z,74860.22
2022-09-12T10:59:03.664Z,74952.66
2022-09-12T11:01:36.470Z,74973.84
2022-09-12T11:04:21.736Z,74975.78
2022-09-12T11:07:19.114Z,74966.16
2022-09-12T11:09:58.095Z,74991.19
2022-09-12T11:12:52.502Z,74968.06
2022-09-12T11:15:43.782Z,74968.06
2022-09-12T11:18:45.059Z,75020.09
2022-09-12T11:21:32.740Z,75016.22
2022-09-12T11:24:39.059Z,75052.81
2022-09-12T11:27:37.068Z,75048.97
2022-09-12T11:30:16.905Z,74956.53
2022-09-12T11:33:05.948Z,74906.44
2022-09-12T11:35:35.232Z,74891.03
2022-09-12T11:38:13.766Z,74883.31
2022-09-12T11:40:50.531Z,74935.34
2022-09-12T11:43:45.145Z,74914.16
2022-09-12T11:46:42.479Z,74929.56
2022-09-12T11:49:15.797Z,74833.25
2022-09-12T11:51:48.678Z,74756.22
2022-09-12T11:54:38.296Z,74736.94
2022-09-12T11:57:43.514Z,74814.00
2022-09-12T12:00:15.673Z,74740.81
2022-09-12T12:02:48.496Z,74694.56
2022-09-12T12:05:42.923Z,74698.44
2022-09-12T12:08:11.019Z,74667.63
2022-09-12T12:10:50.644Z,74690.72
2022-09-12T12:13:39.986Z,74656.06
2022-09-12T12:16:13.011Z,74671.47
2022-09-12T12:18:40.961Z,74686.88
2022-09-12T12:21:21.975Z,74683.03
2022-09-12T12:24:15.629Z,74762.00
2022-09-12T12:26:45.875Z,74779.31
2022-09-12T12:29:18.621Z,74819.78
2022-09-12T12:32:06.453Z,74833.25
2022-09-12T12:34:44.441Z,74875.63
2022-09-12T12:37:22.575Z,74885.25
2022-09-12T12:39:52.764Z,74860.22
2022-09-12T12:42:34.967Z,74875.63
2022-09-12T12:45:04.837Z,74837.09
2022-09-12T12:48:08.120Z,74842.88
2022-09-12T12:50:35.284Z,74833.25
2022-09-12T12:53:05.230Z,74871.78
2022-09-12T12:55:35.489Z,74814.00
2022-09-12T12:58:03.985Z,74796.66
2022-09-12T13:00:35.032Z,74862.13
2022-09-12T13:03:02.061Z,74821.69
2022-09-12T13:05:38.456Z,74787.03
2022-09-12T13:08:24.839Z,74817.84
2022-09-12T13:10:54.076Z,74858.28
2022-09-12T13:13:29.023Z,74871.78
2022-09-12T13:15:55.867Z,74871.78
2022-09-12T13:18:49.665Z,74837.09
2022-09-12T13:21:21.761Z,74825.53
2022-09-12T13:24:04.064Z,74833.25
2022-09-12T13:26:40.451Z,74873.69
2022-09-12T13:29:10.897Z,74867.91
2022-09-12T13:31:37.935Z,74902.59
2022-09-12T13:34:07.453Z,74891.03
2022-09-12T13:37:07.962Z,74864.06
2022-09-12T13:39:41.159Z,74840.97
2022-09-12T13:42:38.891Z,74848.66
2022-09-12T13:45:05.618Z,74825.53
2022-09-12T13:47:38.557Z,74798.59
2022-09-12T13:50:07.582Z,74837.09
2022-09-12T13:52:38.070Z,74856.38
2022-09-12T13:55:23.489Z,74814.00
2022-09-12T13:58:06.570Z,74788.94
2022-09-12T14:00:35.084Z,74825.53
2022-09-12T14:03:20.533Z,74798.59
2022-09-12T14:05:57.505Z,74817.84
2022-09-12T14:08:24.483Z,74794.72
2022-09-12T14:10:51.512Z,74802.44
2022-09-12T14:13:24.988Z,74814.00
2022-09-12T14:15:54.481Z,74802.44
2022-09-12T14:18:33.784Z,74808.22
2022-09-12T14:21:12.836Z,74767.75
2022-09-12T14:23:45.066Z,74744.66
2022-09-12T14:26:13.609Z,74748.50
2022-09-12T14:28:42.745Z,74694.56
2022-09-12T14:31:18.441Z,74702.28
2022-09-12T14:33:49.949Z,74708.06
2022-09-12T14:36:16.598Z,74698.44
2022-09-12T14:38:46.027Z,74727.31
2022-09-12T14:41:20.811Z,74721.53
2022-09-12T14:43:53.390Z,74731.16
2022-09-12T14:46:33.334Z,74736.94
2022-09-12T14:49:01.900Z,74752.34
2022-09-12T14:51:34.248Z,74738.88
2022-09-12T14:54:01.136Z,74740.81
2022-09-12T14:56:53.369Z,74746.56
2022-09-12T14:59:35.072Z,74752.34
2022-09-12T15:02:17.028Z,74787.03
2022-09-12T15:04:47.437Z,74821.69
2022-09-12T15:07:16.762Z,74825.53
2022-09-12T15:09:47.239Z,74815.91
2022-09-12T15:12:14.154Z,74825.53
2022-09-12T15:14:40.789Z,74835.19
2022-09-12T15:17:07.893Z,74852.50
2022-09-12T15:19:34.599Z,74875.63
2022-09-12T15:22:01.310Z,74887.19
2022-09-12T15:24:28.059Z,74860.22
2022-09-12T15:26:54.805Z,74839.03
2022-09-12T15:29:21.595Z,74835.19
2022-09-12T15:31:51.300Z,74842.88
2022-09-12T15:34:20.058Z,74837.09
2022-09-12T15:36:46.725Z,74848.66
2022-09-12T15:39:13.521Z,74852.50
2022-09-12T15:41:40.265Z,74871.78
2022-09-12T15:44:11.449Z,74875.63
2022-09-12T15:46:38.277Z,74887.19
2022-09-12T15:49:05.006Z,74877.56
2022-09-12T15:51:31.884Z,74866.00
2022-09-12T15:54:04.762Z,74879.47
2022-09-12T15:56:31.583Z,74900.66
2022-09-12T15:59:00.107Z,74914.16
2022-09-12T16:01:28.619Z,74937.25
2022-09-12T16:03:55.705Z,74944.97
2022-09-12T16:06:23.536Z,74948.81
2022-09-12T16:08:50.356Z,74968.06
2022-09-12T16:11:24.206Z,74960.38
2022-09-12T16:13:55.366Z,74970.00
2022-09-12T16:16:22.560Z,74975.78
2022-09-12T16:18:49.810Z,74979.63
2022-09-12T16:21:16.503Z,74983.47
2022-09-12T16:23:47.101Z,74991.19
2022-09-12T16:26:14.317Z,74996.97
2022-09-12T16:28:41.381Z,75002.75
2022-09-12T16:31:10.857Z,75002.75
2022-09-12T16:33:38.491Z,75014.31
2022-09-12T16:36:06.935Z,75048.97
2022-09-12T16:38:35.840Z,75091.34
2022-09-12T16:41:04.775Z,75110.63
2022-09-12T16:43:33.255Z,75133.72
2022-09-12T16:46:04.561Z,75153.00
2022-09-12T16:48:31.717Z,75156.84
2022-09-12T16:51:04.094Z,75179.94
2022-09-12T16:53:31.954Z,75179.94
2022-09-12T16:55:58.827Z,75187.66
2022-09-12T16:58:25.797Z,75203.06
2022-09-12T17:01:10.220Z,75222.34
2022-09-12T17:03:37.151Z,75245.44
2022-09-12T17:06:15.273Z,75257.00
2022-09-12T17:08:44.775Z,75276.28
2022-09-12T17:11:16.004Z,75282.03
2022-09-12T17:14:03.743Z,75293.59
2022-09-12T17:16:33.104Z,75307.09
2022-09-12T17:18:59.928Z,75322.50
2022-09-12T17:21:26.655Z,75337.91
2022-09-12T17:23:53.412Z,75353.31
2022-09-12T17:26:20.832Z,75359.09
2022-09-12T17:28:47.658Z,75366.81
2022-09-12T17:31:15.330Z,75384.13
2022-09-12T17:33:42.500Z,75399.56
2022-09-12T17:36:14.999Z,75414.97
2022-09-12T17:38:43.009Z,75430.38
2022-09-12T17:41:18.663Z,75449.63
2022-09-12T17:43:47.515Z,75468.91
2022-09-12T17:46:14.598Z,75482.38
2022-09-12T17:48:41.757Z,75499.72
2022-09-12T17:51:15.029Z,75511.28
2022-09-12T17:53:43.046Z,75519.00
2022-09-12T17:56:11.365Z,75532.47
2022-09-12T17:58:38.217Z,75540.19
2022-09-12T18:01:32.299Z,75545.97
2022-09-12T18:04:03.645Z,75553.66
2022-09-12T18:06:32.335Z,75559.44
2022-09-12T18:09:03.993Z,75569.06
2022-09-12T18:11:30.873Z,75565.22
2022-09-12T18:14:00.887Z,75576.78
2022-09-12T18:16:31.478Z,75594.13
2022-09-12T18:19:04.210Z,75599.91
2022-09-12T18:21:31.108Z,75619.16
2022-09-12T18:24:01.366Z,75623.03
2022-09-12T18:26:29.612Z,75640.34
2022-09-12T18:28:56.670Z,75665.41
2022-09-12T18:31:26.742Z,75673.09
2022-09-12T18:33:53.494Z,75692.38
2022-09-12T18:36:21.158Z,75703.94
2022-09-12T18:38:48.929Z,75711.63
2022-09-12T18:41:18.381Z,75719.34
2022-09-12T18:43:45.454Z,75723.19
2022-09-12T18:46:17.485Z,75732.84
2022-09-12T18:48:45.290Z,75746.31
2022-09-12T18:51:20.800Z,75750.16
2022-09-12T18:53:53.053Z,75750.16
2022-09-12T18:56:20.061Z,75761.72
2022-09-12T18:58:55.599Z,75769.44
2022-09-12T19:01:27.813Z,75769.44
2022-09-12T19:03:55.132Z,75769.44
2022-09-12T19:06:27.769Z,75767.50
2022-09-12T19:08:56.078Z,75777.13
2022-09-12T19:11:24.195Z,75775.22
2022-09-12T19:13:52.369Z,75777.13
2022-09-12T19:16:24.429Z,75777.13
2022-09-12T19:18:52.391Z,75777.13
2022-09-12T19:21:24.883Z,75777.13
2022-09-12T19:23:52.831Z,75788.69
2022-09-12T19:26:21.131Z,75788.69
2022-09-12T19:28:48.685Z,75800.25
2022-09-12T19:31:22.038Z,75800.25
2022-09-12T19:33:50.032Z,75798.34
2022-09-12T19:36:41.130Z,75811.81
2022-09-12T19:39:07.643Z,75827.22
2022-09-12T19:41:35.209Z,75834.94
2022-09-12T19:44:02.157Z,75844.56
2022-09-12T19:46:29.336Z,75858.06
2022-09-12T19:48:56.312Z,75865.75
2022-09-12T19:51:26.479Z,75871.53
2022-09-12T19:53:53.564Z,75881.19
2022-09-12T19:56:20.915Z,75892.75
2022-09-12T19:58:55.073Z,75892.75
2022-09-12T20:01:25.183Z,75890.81
2022-09-12T20:03:53.839Z,75894.66
2022-09-12T20:06:20.918Z,75892.75
2022-09-12T20:08:47.749Z,75896.59
2022-09-12T20:11:17.623Z,75892.75
2022-09-12T20:13:45.439Z,75900.44
2022-09-12T20:16:24.620Z,75908.16
2022-09-12T20:19:00.318Z,75908.16
2022-09-12T20:21:34.099Z,75917.78
2022-09-12T20:24:07.559Z,75923.56
2022-09-12T20:26:34.570Z,75942.84
2022-09-12T20:29:01.563Z,75950.53
2022-09-12T20:31:28.666Z,75962.09
2022-09-12T20:33:56.014Z,75965.94
2022-09-12T20:36:23.195Z,75977.50
2022-09-12T20:38:52.657Z,75989.06
2022-09-12T20:41:21.048Z,76002.56
2022-09-12T20:43:55.029Z,76004.47
2022-09-12T20:46:23.227Z,76016.03
2022-09-12T20:48:51.229Z,76019.91
2022-09-12T20:51:18.975Z,76021.81
2022-09-12T20:53:46.202Z,76031.47
2022-09-12T20:56:14.474Z,76033.38
2022-09-12T20:58:43.994Z,76043.03
2022-09-12T21:01:13.708Z,76043.03
2022-09-12T21:03:42.086Z,76043.03
2022-09-12T21:06:10.141Z,76054.59
2022-09-12T21:08:37.472Z,76054.59
2022-09-12T21:11:04.900Z,76058.44
2022-09-12T21:13:31.606Z,76054.59
2022-09-12T21:16:02.055Z,76056.50
2022-09-12T21:18:29.211Z,76054.59
2022-09-12T21:20:56.757Z,76058.44
2022-09-12T21:23:24.795Z,76060.38
2022-09-12T21:25:52.567Z,76058.44
2022-09-12T21:28:20.256Z,76058.44
2022-09-12T21:30:51.083Z,76056.50
2022-09-12T21:33:19.495Z,76052.66
2022-09-12T21:35:47.515Z,76054.59
2022-09-12T21:38:18.245Z,76050.72
2022-09-12T21:40:45.535Z,76056.50
2022-09-12T21:43:13.158Z,76058.44
2022-09-12T21:45:40.434Z,76058.44
2022-09-12T21:48:07.697Z,76058.44
2022-09-12T21:50:34.805Z,76066.13
2022-09-12T21:53:01.469Z,76071.91
2022-09-12T21:55:28.204Z,76070.00
2022-09-12T21:57:55.397Z,76079.63
2022-09-12T22:00:22.628Z,76077.69
2022-09-12T22:02:49.368Z,76077.69
2022-09-12T22:05:17.243Z,76083.47
2022-09-12T22:07:44.013Z,76096.97
2022-09-12T22:10:11.121Z,76096.97
2022-09-12T22:12:40.702Z,76096.97
2022-09-12T22:15:36.297Z,76100.81
2022-09-12T22:17:57.351Z,76110.47
2022-09-12T22:20:24.128Z,76112.38
2022-09-12T22:23:09.050Z,76112.38
2022-09-12T22:25:35.919Z,76123.94
2022-09-12T22:28:02.587Z,76125.88
2022-09-12T22:30:29.327Z,76129.72
2022-09-12T22:32:55.992Z,76133.56
2022-09-12T22:35:22.785Z,76123.94
2022-09-12T22:37:49.688Z,76131.66
2022-09-12T22:40:16.680Z,76123.94
2022-09-12T22:42:43.464Z,76120.09
2022-09-12T22:45:10.459Z,76120.09
2022-09-12T22:47:37.151Z,76123.94
2022-09-12T22:50:04.354Z,76123.94
2022-09-12T22:52:31.046Z,76122.00
2022-09-12T22:54:57.735Z,76123.94
2022-09-12T22:57:24.395Z,76131.66
2022-09-12T22:59:51.120Z,76135.50
2022-09-12T23:02:20.927Z,76133.56
2022-09-12T23:04:48.295Z,76141.28
2022-09-12T23:07:15.063Z,76139.34
2022-09-12T23:09:42.130Z,76131.66
2022-09-12T23:12:08.965Z,76123.94
2022-09-12T23:14:35.790Z,76129.72
2022-09-12T23:17:02.575Z,76123.94
2022-09-12T23:19:29.222Z,76127.78
2022-09-12T23:21:55.860Z,76125.88
2022-09-12T23:24:22.629Z,76120.09
2022-09-12T23:26:49.429Z,76123.94
2022-09-12T23:29:16.475Z,76129.72
2022-09-12T23:31:43.874Z,76127.78
2022-09-12T23:34:10.741Z,76129.72
2022-09-12T23:36:37.428Z,76139.34
2022-09-12T23:39:04.204Z,76141.28
2022-09-12T23:41:31.240Z,76143.22
2022-09-12T23:43:58.103Z,76149.00
2022-09-12T23:46:24.749Z,76145.13
2022-09-12T23:48:53.290Z,76150.91
2022-09-12T23:51:21.880Z,76154.78
2022-09-12T23:53:49.163Z,76154.78
2022-09-12T23:56:15.890Z,76162.47
2022-09-12T23:58:42.744Z,76170.19
